Washington, Indiana
Current Conditions -  °F | °C
As of 7:15 PM on Sunday 21 Dec 2014 (Local Time) from KDCY Reporting Station
Clear Clear  
Wind Chill: 25°   Ceiling: Unl
Heat Index: 33°   Visibility: 7mi
Dew Point: 27°   Wind: 8mph
Humidity: 79%   Direction: 100°E
Pressure: 30.11"   Gusts: NA
Location:  38.66°N, 87.17°W
Report Text: KDCY 220115Z AUTO 10007KT 7SM CLR 00/M03 A3011 RMK AO2 T00031029
Loading
Personal Weather Stations






























Interactive Weather Map New forecast layout! Learn more

10-Day Weather Forecast

Advertisements
Track Severe Weather on mobile